»·PEaware :: SWA2202 KLAS-KSAN

SWA2202 :: KLAS-KSAN

FLIGHT INFORMATION

Flight Status: Arrived
Operator:
Southwest Airlines
More flights by this operator :: More flights under this callsign
Pilot: Ben L. (6391)
Aircraft: BOEING 737-800
(B738)
More flights by this aircraft type
Origin: KLAS McCarran Intl
United States
Destination: KSAN San Diego Intl-Lindbergh
United States
More flights between these airports :: More routes between these airports
Route: +BOACH8 LVELL LUCKI1
File this flight plan on PilotEdge
Remarks:
Altitude:
(Current/Filed)
30,000ft
Speed:
(Current/Filed)
450kts
Departed: 18-Jul-19 09:48 AM
Arrived: 18-Jul-19 10:33 AM
Distance/Time
Traveled:
225nm/0:44
Distance/Time
To Go:
Arrived

Flight Plot

Page will automatically refresh every two minutes.

Flight plan parsing failed; only flown route is shown


Map Options




Map Legend


Flown Route
Filed Route
Departure Airport
Arrival Airport
Navaid (VOR, NDB)
Fix

Horizontal Profiles

Position Reports

Time Latitude Longitude Heading Altitude Ground
Speed
18-Jul-19 09:25 36.079760 -115.146264 342 2097ft 0kts
18-Jul-19 09:26 36.079760 -115.146264 342 2097ft 0kts
18-Jul-19 09:27 36.079760 -115.146264 342 2097ft 0kts
18-Jul-19 09:28 36.079760 -115.146264 342 2097ft 0kts
18-Jul-19 09:29 36.079760 -115.146264 342 2097ft 0kts
18-Jul-19 09:30 36.079760 -115.146264 342 2097ft 0kts
18-Jul-19 09:31 36.079760 -115.146264 342 2097ft 0kts
18-Jul-19 09:32 36.079760 -115.146264 342 2097ft 0kts
18-Jul-19 09:33 36.079760 -115.146264 342 2097ft 0kts
18-Jul-19 09:34 36.079760 -115.146264 342 2097ft 0kts
18-Jul-19 09:35 36.079760 -115.146264 342 2097ft 0kts
18-Jul-19 09:36 36.079760 -115.146264 342 2097ft 0kts
18-Jul-19 09:37 36.079760 -115.146263 342 2097ft 0kts
18-Jul-19 09:38 36.079190 -115.146221 28 2098ft 2kts
18-Jul-19 09:39 36.078913 -115.146700 82 2101ft 0kts
18-Jul-19 09:40 36.078913 -115.146700 82 2101ft 0kts
18-Jul-19 09:41 36.078927 -115.146041 91 2098ft 11kts
18-Jul-19 09:42 36.078271 -115.143272 95 2090ft 22kts
18-Jul-19 09:43 36.078282 -115.133580 90 2061ft 33kts
18-Jul-19 09:44 36.078250 -115.123316 93 2041ft 17kts
18-Jul-19 09:45 36.077514 -115.121607 133 2038ft 0kts
18-Jul-19 09:46 36.077290 -115.121393 152 2038ft 8kts
18-Jul-19 09:47 36.076374 -115.142905 267 2209ft 173kts
18-Jul-19 09:48 36.075712 -115.206170 247 5228ft 197kts
18-Jul-19 09:49 36.036832 -115.268752 211 6977ft 254kts
18-Jul-19 09:50 35.966847 -115.301312 189 7828ft 282kts
18-Jul-19 09:51 35.892332 -115.311062 186 10989ft 310kts
18-Jul-19 09:52 35.802567 -115.309025 175 14275ft 331kts
18-Jul-19 09:53 35.708771 -115.298202 175 17461ft 345kts
18-Jul-19 09:54 35.610288 -115.297339 181 20052ft 362kts
18-Jul-19 09:55 35.507922 -115.301463 180 22725ft 375kts
18-Jul-19 09:56 35.401759 -115.305640 180 25045ft 389kts
18-Jul-19 09:57 35.291247 -115.310027 179 27113ft 404kts
18-Jul-19 09:58 35.177015 -115.314478 179 28984ft 418kts
18-Jul-19 09:59 35.058766 -115.319068 179 29969ft 435kts
18-Jul-19 10:00 34.935528 -115.323973 181 29959ft 441kts
18-Jul-19 10:01 34.813856 -115.329033 185 29963ft 445kts
18-Jul-19 10:02 34.693125 -115.369250 199 29970ft 444kts
18-Jul-19 10:03 34.576719 -115.420388 199 30053ft 444kts
18-Jul-19 10:04 34.460777 -115.470964 199 30091ft 443kts
18-Jul-19 10:05 34.344165 -115.521817 201 30090ft 443kts
18-Jul-19 10:06 34.236183 -115.595695 211 30090ft 444kts
18-Jul-19 10:07 34.127088 -115.654319 200 30089ft 443kts
18-Jul-19 10:08 34.012272 -115.708377 200 30033ft 444kts
18-Jul-19 10:09 33.897496 -115.762651 201 29917ft 442kts
18-Jul-19 10:10 33.786390 -115.817338 200 29900ft 439kts
18-Jul-19 10:11 33.676357 -115.869190 200 27595ft 415kts
18-Jul-19 10:12 33.571391 -115.918327 201 25189ft 394kts
18-Jul-19 10:13 33.486407 -115.997616 228 23910ft 392kts
18-Jul-19 10:14 33.422192 -116.104608 233 23907ft 394kts
18-Jul-19 10:15 33.361380 -116.208841 230 22149ft 376kts
18-Jul-19 10:16 33.281259 -116.282847 206 19819ft 354kts
18-Jul-19 10:17 33.195040 -116.333575 205 17723ft 336kts
18-Jul-19 10:18 33.112855 -116.381641 206 15743ft 319kts
18-Jul-19 10:19 33.031801 -116.428950 206 13711ft 322kts
18-Jul-19 10:20 32.963036 -116.486921 219 12309ft 296kts
18-Jul-19 10:22 32.901047 -116.549723 220 10692ft 282kts
18-Jul-19 10:23 32.848076 -116.603073 221 10045ft 250kts
18-Jul-19 10:24 32.794923 -116.656545 221 8765ft 262kts
18-Jul-19 10:25 32.752017 -116.723901 241 7452ft 254kts
18-Jul-19 10:26 32.717623 -116.796736 241 6186ft 249kts
18-Jul-19 10:27 32.691335 -116.869578 250 5157ft 239kts
18-Jul-19 10:28 32.675568 -116.939536 274 4910ft 206kts
18-Jul-19 10:29 32.688612 -117.005025 285 3847ft 201kts
18-Jul-19 10:30 32.704197 -117.068752 285 2652ft 198kts
18-Jul-19 10:31 32.718714 -117.128274 285 1232ft 183kts
18-Jul-19 10:32 32.731245 -117.180098 284 51ft 141kts
18-Jul-19 10:33 32.734771 -117.198312 168 20ft 1kts
18-Jul-19 10:34 32.733978 -117.195839 129 21ft 10kts
18-Jul-19 10:35 32.732557 -117.195476 308 21ft 0kts
18-Jul-19 10:36 32.732557 -117.195476 308 21ft 0kts

Navigation Log

Ident Type
Flight plan parsing failed, navigation log unavailable